Vidfoss — V2QK4 — position and weather

sailwx.info

Track history (hours):
 
Tides and Currents Weather Stations Pressure Air Temp Water Temp Dewpoint Dewpoint Depression Visibility Wind Speed Wind Dir Waves Ship Positions

Vidfoss

Last reported at 2017-Sep-22 01:01 UTC. Time now 2017-Sep-22 01:02 UTC.
Position N 52°28' E 004°40'.

Length 93 m; draft 5.3 m.

Type: Cargo ship. MMSI: 305846000.

Date/timePositionNaut miles runAvg speedWind from/ knotsBaromVisibWave heightAir tempDewpointWater temp
2017-Sep-22 01:01N 52°28' E 004°40'0 0.0
2017-Sep-22 00:30N 52°28' E 004°40'0 0.0
2017-Sep-22 00:00N 52°28' E 004°40'0 0.0
2017-Sep-21 23:30N 52°28' E 004°40'0 0.0
2017-Sep-21 23:00N 52°28' E 004°40'0 0.0
2017-Sep-21 22:30N 52°28' E 004°40'0 0.0
2017-Sep-21 22:00N 52°28' E 004°40'0 0.0
2017-Sep-21 21:30N 52°28' E 004°40'0 0.0
2017-Sep-21 21:00N 52°28' E 004°40'0 0.0
2017-Sep-21 20:30N 52°28' E 004°40'0 0.0
2017-Sep-21 20:00N 52°28' E 004°40'0 0.0
2017-Sep-21 19:30N 52°28' E 004°40'0 0.0
2017-Sep-21 19:00N 52°28' E 004°40'0 0.0
2017-Sep-21 18:30N 52°28' E 004°40'0 0.0
2017-Sep-21 18:00N 52°28' E 004°40'0 0.0
2017-Sep-21 17:30N 52°28' E 004°40'0 0.0
2017-Sep-21 17:00N 52°28' E 004°40'0 0.0
2017-Sep-21 16:30N 52°28' E 004°40'0 0.0
2017-Sep-21 16:00N 52°28' E 004°40'0 0.7
2017-Sep-21 15:30N 52°28' E 004°39'2 4.1
2017-Sep-21 15:00N 52°28' E 004°36'1 1.9
2017-Sep-21 14:30N 52°28' E 004°34'4 7.6
2017-Sep-21 14:01N 52°29' E 004°29'610.9
2017-Sep-21 13:30N 52°35' E 004°29'611.8
2017-Sep-21 13:00N 52°41' E 004°29'1111.8
2017-Sep-21 12:03N 52°52' E 004°30'31511.5
2017-Sep-20 08:43N 58°04' E 005°55'311.7
2017-Sep-20 08:30N 58°06' E 005°56'611.4
2017-Sep-20 08:00N 58°12' E 005°57'611.8
2017-Sep-20 07:30N 58°18' E 005°59'612.1
2017-Sep-20 07:01N 58°24' E 005°60'3 5.5
2017-Sep-20 06:30N 58°27' E 005°59'0 0.0
2017-Sep-20 06:00N 58°27' E 005°59'0 0.0
2017-Sep-20 05:31N 58°27' E 005°59'1 1.3
2017-Sep-20 05:01N 58°26' E 005°59'3 5.7
2017-Sep-20 04:30N 58°24' E 005°55'510.3
2017-Sep-20 04:00N 58°26' E 005°46'611.3
2017-Sep-20 03:30N 58°30' E 005°38'611.3
2017-Sep-20 03:00N 58°35' E 005°32'612.0
2017-Sep-20 02:30N 58°40' E 005°27'612.1
2017-Sep-20 02:01N 58°46' E 005°24'611.9
2017-Sep-20 01:31N 58°51' E 005°29'612.4
2017-Sep-20 01:00N 58°57' E 005°33'612.4
2017-Sep-20 00:30N 59°03' E 005°32'611.3
2017-Sep-20 00:00N 59°08' E 005°25'510.5
2017-Sep-19 23:30N 59°12' E 005°20'612.0
2017-Sep-19 23:00N 59°18' E 005°20'511.1
2017-Sep-19 22:30N 59°24' E 005°17'611.4
2017-Sep-19 22:00N 59°29' E 005°12'611.8
2017-Sep-19 21:30N 59°35' E 005°14'612.1
2017-Sep-19 21:00N 59°40' E 005°21'612.1
2017-Sep-19 20:30N 59°44' E 005°29'611.4
2017-Sep-19 20:00N 59°50' E 005°33'612.0
2017-Sep-19 19:30N 59°55' E 005°30'611.8
2017-Sep-19 19:00N 59°59' E 005°21'612.0
2017-Sep-19 18:30N 60°05' E 005°18'612.1
2017-Sep-19 18:00N 60°11' E 005°13'611.2
2017-Sep-19 17:30N 60°16' E 005°10'5 9.8
2017-Sep-19 17:00N 60°21' E 005°10'510.7
2017-Sep-19 16:30N 60°25' E 005°03'612.3
2017-Sep-19 16:00N 60°31' E 004°57'612.4
2017-Sep-19 15:30N 60°36' E 004°53'612.1
2017-Sep-19 15:00N 60°42' E 004°48'612.3
2017-Sep-19 14:29N 60°48' E 004°45'611.4
2017-Sep-19 14:00N 60°54' E 004°46'612.5
2017-Sep-19 13:30N 60°60' E 004°45'611.7
2017-Sep-19 13:00N 61°06' E 004°44'611.9
2017-Sep-19 12:30N 61°12' E 004°43'611.3
2017-Sep-19 12:00N 61°17' E 004°47'612.1
2017-Sep-19 11:30N 61°23' E 004°49'612.1
2017-Sep-19 11:00N 61°28' E 004°57'611.7
2017-Sep-19 10:30N 61°33' E 004°60'610.9
2017-Sep-19 09:59N 61°39' E 004°59'611.5
2017-Sep-19 09:30N 61°45' E 004°59'612.0
2017-Sep-19 09:00N 61°49' E 005°09'4 8.7
2017-Sep-19 08:30N 61°52' E 005°14'510.1
2017-Sep-19 08:00N 61°56' E 005°07'0 1.0
2017-Sep-19 07:30N 61°56' E 005°08'0 0.0
2017-Sep-19 07:00N 61°56' E 005°08'0 0.0
2017-Sep-19 06:30N 61°56' E 005°08'0 0.0
2017-Sep-19 06:00N 61°56' E 005°08'3 5.9
2017-Sep-19 05:29N 61°59' E 005°10'611.9
2017-Sep-19 05:00N 62°05' E 005°07'611.5
2017-Sep-19 04:30N 62°11' E 005°05'510.1
2017-Sep-19 04:00N 62°14' E 005°13'610.8
2017-Sep-19 03:30N 62°11' E 005°23'510.5
2017-Sep-19 03:00N 62°11' E 005°34'611.9
2017-Sep-19 02:30N 62°12' E 005°47'510.7
2017-Sep-19 02:00N 62°15' E 005°56'5 9.9
2017-Sep-19 01:30N 62°19' E 006°04'3 5.2
2017-Sep-19 01:00N 62°21' E 006°05'0 0.2
2017-Sep-19 00:30N 62°21' E 006°05'0 0.0
2017-Sep-19 00:00N 62°21' E 006°05'0 0.0
2017-Sep-18 23:30N 62°21' E 006°05'0 0.0
2017-Sep-18 23:01N 62°21' E 006°05'2 4.2
2017-Sep-18 22:31N 62°23' E 006°05'4 8.4
2017-Sep-18 22:00N 62°27' E 006°08'1 2.0
2017-Sep-18 21:30N 62°28' E 006°08'0 0.0
2017-Sep-18 21:00N 62°28' E 006°08'0 0.0
2017-Sep-18 20:30N 62°28' E 006°08'0 0.0
2017-Sep-18 20:00N 62°28' E 006°08'1 2.2
2017-Sep-18 19:30N 62°27' E 006°10'2 3.2
2017-Sep-18 18:59N 62°29' E 006°10'2 3.4
2017-Sep-18 18:30N 62°29' E 006°14'0 0.0
2017-Sep-18 18:01N 62°29' E 006°14'1 1.1
2017-Sep-18 17:29N 62°29' E 006°14'3 5.9
2017-Sep-18 17:00N 62°28' E 006°21'0 0.0
2017-Sep-18 16:30N 62°28' E 006°21'1 1.5
2017-Sep-18 16:00N 62°29' E 006°19'1 1.2
2017-Sep-18 15:30N 62°29' E 006°18'0 0.0
2017-Sep-18 15:00N 62°29' E 006°18'0 0.0
2017-Sep-18 14:30N 62°29' E 006°18'0 0.2
2017-Sep-18 14:00N 62°29' E 006°19'5 9.1
2017-Sep-18 13:30N 62°29' E 006°09'1 1.2
2017-Sep-18 13:00N 62°28' E 006°08'0 0.0
2017-Sep-18 12:30N 62°28' E 006°08'1 2.2
2017-Sep-18 12:00N 62°29' E 006°08'611.6
2017-Sep-18 11:29N 62°35' E 006°14'612.2
2017-Sep-18 11:00N 62°39' E 006°23'612.1
2017-Sep-18 10:30N 62°44' E 006°31'612.2
2017-Sep-18 10:00N 62°49' E 006°38'612.2
2017-Sep-18 09:30N 62°54' E 006°46'612.1
2017-Sep-18 09:00N 62°59' E 006°54'612.2
2017-Sep-18 08:30N 63°01' E 007°06'612.0
2017-Sep-18 08:00N 63°03' E 007°18'611.8
2017-Sep-18 07:30N 63°06' E 007°30'612.0
2017-Sep-18 07:00N 63°09' E 007°41'612.0
2017-Sep-18 06:30N 63°12' E 007°52'612.1
2017-Sep-18 06:01N 63°15' E 008°04'611.7
2017-Sep-18 05:30N 63°19' E 008°15'611.8
2017-Sep-18 05:00N 63°22' E 008°25'612.3
2017-Sep-18 04:30N 63°25' E 008°37'612.3
2017-Sep-18 04:00N 63°27' E 008°50'612.2
2017-Sep-18 03:30N 63°29' E 009°03'612.4
2017-Sep-18 03:00N 63°32' E 009°15'612.0
2017-Sep-18 02:30N 63°36' E 009°26'611.8
2017-Sep-18 02:00N 63°41' E 009°30'611.9
2017-Sep-18 01:30N 63°47' E 009°34'612.0
2017-Sep-18 00:59N 63°52' E 009°42'611.1
2017-Sep-18 00:30N 63°57' E 009°47'611.4
2017-Sep-18 00:00N 64°03' E 009°48'611.9
2017-Sep-17 23:29N 64°06' E 009°59'611.5
2017-Sep-17 23:00N 64°10' E 010°08'611.7
2017-Sep-17 22:30N 64°15' E 010°17'1 1.5
2017-Sep-17 21:36N 64°16' E 010°19'1 8.1
2017-Sep-17 21:30N 64°17' E 010°19'510.8
2017-Sep-17 21:00N 64°22' E 010°23'611.4
2017-Sep-17 20:30N 64°27' E 010°27'611.5
2017-Sep-17 20:00N 64°32' E 010°33'612.1
2017-Sep-17 19:31N 64°37' E 010°41'611.9
2017-Sep-17 19:00N 64°41' E 010°51'611.9
2017-Sep-17 18:30N 64°46' E 011°01'611.8
2017-Sep-17 18:01N 64°50' E 011°10'510.8
2017-Sep-17 17:30N 64°54' E 011°19'611.6
2017-Sep-17 17:01N 64°57' E 011°30'611.2
2017-Sep-17 16:31N 65°01' E 011°40'612.0
2017-Sep-17 16:01N 65°06' E 011°48'612.3
2017-Sep-17 15:31N 65°12' E 011°52'612.0
2017-Sep-17 15:00N 65°17' E 011°58'510.1
2017-Sep-17 14:30N 65°22' E 012°01'611.1
2017-Sep-17 14:00N 65°27' E 011°56'612.1
2017-Sep-17 13:30N 65°33' E 012°02'611.9
2017-Sep-17 13:00N 65°37' E 012°11'612.3
2017-Sep-17 12:30N 65°43' E 012°16'612.2
2017-Sep-17 12:00N 65°49' E 012°21'612.2
2017-Sep-17 11:30N 65°55' E 012°22'612.0
2017-Sep-17 11:00N 65°60' E 012°30'612.0
2017-Sep-17 10:30N 66°05' E 012°40'611.8
2017-Sep-17 10:00N 66°09' E 012°49'611.9
2017-Sep-17 09:30N 66°15' E 012°54'612.1
2017-Sep-17 09:00N 66°21' E 012°57'612.0
2017-Sep-17 08:30N 66°27' E 012°59'611.3
2017-Sep-17 07:59N 66°32' E 012°59'510.6
2017-Sep-17 07:30N 66°37' E 013°04'612.0
2017-Sep-17 06:59N 66°43' E 013°10'611.7
2017-Sep-17 06:30N 66°48' E 013°15'510.9
2017-Sep-17 06:00N 66°53' E 013°20'611.7
2017-Sep-17 05:30N 66°59' E 013°19'611.9
2017-Sep-17 05:00N 67°05' E 013°16'612.1
2017-Sep-17 04:30N 67°10' E 013°11'612.3
2017-Sep-17 04:00N 67°16' E 013°05'812.6
2017-Sep-17 03:21N 67°24' E 012°57'412.3
2017-Sep-17 03:00N 67°28' E 012°53'612.2
2017-Sep-17 02:30N 67°34' E 012°47'611.5
2017-Sep-17 02:00N 67°39' E 012°43'1 1.0
2017-Sep-17 01:30N 67°39' E 012°42'0 0.0
2017-Sep-17 01:00N 67°39' E 012°42'0 0.0
2017-Sep-17 00:30N 67°39' E 012°42'0 0.0
2017-Sep-17 00:00N 67°39' E 012°42'0 0.0
2017-Sep-16 23:30N 67°39' E 012°42'0 0.0
2017-Sep-16 23:00N 67°39' E 012°42'0 0.0
2017-Sep-16 22:30N 67°39' E 012°42'0 0.0
2017-Sep-16 22:00N 67°39' E 012°42'0 0.0
2017-Sep-16 21:30N 67°39' E 012°42'0 0.0
2017-Sep-16 21:00N 67°39' E 012°42'0 0.0
2017-Sep-16 20:30N 67°39' E 012°42'0 0.0
2017-Sep-16 20:00N 67°39' E 012°42'2 4.5
2017-Sep-16 19:30N 67°40' E 012°48'713.0
2017-Sep-16 19:00N 67°44' E 013°00'713.0
2017-Sep-16 18:29N 67°49' E 013°12'613.1
2017-Sep-16 18:00N 67°53' E 013°24'712.9
2017-Sep-16 17:30N 67°58' E 013°36'612.3
2017-Sep-16 16:59N 68°03' E 013°47'4 9.1
2017-Sep-16 16:30N 68°07' E 013°50'0 0.0
2017-Sep-16 16:00N 68°07' E 013°50'0 0.0
2017-Sep-16 15:30N 68°07' E 013°50'0 0.0
2017-Sep-16 14:59N 68°07' E 013°50'0 0.3
2017-Sep-16 14:30N 68°07' E 013°50'5 9.8
2017-Sep-16 13:59N 68°08' E 014°03'511.3
2017-Sep-16 13:30N 68°13' E 014°10'611.6
2017-Sep-16 13:00N 68°19' E 014°17'611.1
2017-Sep-16 12:29N 68°24' E 014°22'611.9
2017-Sep-16 12:00N 68°27' E 014°35'612.1
2017-Sep-16 11:30N 68°29' E 014°51'612.1
2017-Sep-16 11:00N 68°32' E 015°04'612.4
2017-Sep-16 10:30N 68°36' E 015°16'611.7
2017-Sep-16 10:00N 68°41' E 015°26'612.0
2017-Sep-16 09:30N 68°47' E 015°26'612.2
2017-Sep-16 09:00N 68°53' E 015°32'611.4
2017-Sep-16 08:30N 68°58' E 015°39'4 8.9
2017-Sep-16 08:00N 68°59' E 015°51'4 9.0
2017-Sep-16 07:30N 69°02' E 016°00'611.8
2017-Sep-16 07:00N 69°07' E 016°10'611.7
2017-Sep-16 06:29N 69°12' E 016°19'611.9
2017-Sep-16 06:00N 69°17' E 016°27'612.1
2017-Sep-16 05:30N 69°22' E 016°36'612.0
2017-Sep-16 05:00N 69°27' E 016°45'611.5
2017-Sep-16 04:30N 69°31' E 016°57'611.0
2017-Sep-16 03:59N 69°33' E 017°12'611.3
2017-Sep-16 03:29N 69°32' E 017°28'2 0.4
2017-Sep-15 21:31N 69°30' E 017°29'0 0.0
2017-Sep-15 21:30N 69°30' E 017°29'3 6.1
2017-Sep-15 21:00N 69°33' E 017°28'511.2
2017-Sep-15 20:30N 69°38' E 017°31'611.2
2017-Sep-15 20:00N 69°38' E 017°47'611.7
2017-Sep-15 19:31N 69°34' E 017°59'611.6
2017-Sep-15 19:00N 69°31' E 018°13'611.7
2017-Sep-15 18:30N 69°32' E 018°29'511.0
2017-Sep-15 18:00N 69°33' E 018°44'611.0
2017-Sep-15 17:30N 69°37' E 018°55'1 1.2
2017-Sep-15 17:00N 69°38' E 018°57'0 0.0
2017-Sep-15 16:30N 69°38' E 018°57'0 0.0
2017-Sep-15 16:00N 69°38' E 018°57'0 0.0
2017-Sep-15 15:30N 69°38' E 018°57'0 0.0
2017-Sep-15 15:01N 69°38' E 018°57'0 0.0
2017-Sep-15 14:30N 69°38' E 018°57'0 0.0
2017-Sep-15 14:00N 69°38' E 018°57'0 0.0
2017-Sep-15 13:30N 69°38' E 018°57'0 0.0
2017-Sep-15 13:00N 69°38' E 018°57'0 0.0
2017-Sep-15 12:30N 69°38' E 018°57'0 0.0
2017-Sep-15 12:00N 69°38' E 018°57'0 0.0
2017-Sep-15 11:30N 69°38' E 018°57'0 0.0
2017-Sep-15 11:00N 69°38' E 018°57'0 0.0
2017-Sep-15 10:30N 69°38' E 018°57'0 0.0
2017-Sep-15 10:00N 69°38' E 018°57'0 0.0
2017-Sep-15 09:30N 69°38' E 018°57'0 0.0
2017-Sep-15 09:00N 69°38' E 018°57'0 0.0
2017-Sep-15 08:30N 69°38' E 018°57'0 0.0
2017-Sep-15 08:01N 69°38' E 018°57'0 0.0
2017-Sep-15 07:30N 69°38' E 018°57'0 0.0
2017-Sep-15 07:00N 69°38' E 018°57'0 0.0
2017-Sep-15 06:30N 69°38' E 018°57'1 1.8
2017-Sep-15 06:00N 69°38' E 018°57'1 2.0
2017-Sep-15 05:31N 69°39' E 018°58'0 0.0
2017-Sep-15 05:00N 69°39' E 018°58'4 7.6
2017-Sep-15 04:30N 69°43' E 019°03'510.3
2017-Sep-15 04:00N 69°47' E 019°13'611.9
2017-Sep-15 03:30N 69°49' E 019°29'611.2
2017-Sep-15 03:00N 69°51' E 019°44'510.3
2017-Sep-15 02:30N 69°54' E 019°56'4 8.7
2017-Sep-15 02:00N 69°57' E 020°05'4 8.7
2017-Sep-15 01:30N 69°59' E 020°16'4 9.0
2017-Sep-15 01:00N 70°01' E 020°28'5 9.4
2017-Sep-15 00:30N 70°02' E 020°41'4 9.0
2017-Sep-15 00:00N 70°04' E 020°53'4 8.3
2017-Sep-14 23:29N 70°08' E 020°59'4 8.3
2017-Sep-14 23:00N 70°11' E 021°04'4 8.7
2017-Sep-14 22:30N 70°15' E 021°12'4 8.5
2017-Sep-14 22:00N 70°17' E 021°22'4 8.5
2017-Sep-14 21:29N 70°20' E 021°31'4 8.4
2017-Sep-14 21:00N 70°23' E 021°39'3 7.0
2017-Sep-14 20:30N 70°23' E 021°49'5 9.4
2017-Sep-14 20:00N 70°21' E 022°01'5 9.5
2017-Sep-14 19:30N 70°18' E 022°14'4 8.7
2017-Sep-14 19:00N 70°15' E 022°20'1 1.2
2017-Sep-14 18:30N 70°14' E 022°21'0 0.0
2017-Sep-14 18:00N 70°14' E 022°21'0 0.2
2017-Sep-14 17:30N 70°14' E 022°21'5 9.7
2017-Sep-14 17:00N 70°19' E 022°18'611.0
2017-Sep-14 16:30N 70°24' E 022°28'612.4
2017-Sep-14 16:01N 70°27' E 022°42'612.2
2017-Sep-14 15:30N 70°31' E 022°57'612.0
2017-Sep-14 15:00N 70°35' E 023°11'611.6
2017-Sep-14 14:30N 70°38' E 023°25'510.4
2017-Sep-14 14:00N 70°40' E 023°40'0 0.0
2017-Sep-14 13:30N 70°40' E 023°40'0 0.0
2017-Sep-14 13:00N 70°40' E 023°40'0 0.0
2017-Sep-14 12:30N 70°40' E 023°40'0 0.0
2017-Sep-14 12:00N 70°40' E 023°40'0 0.0
2017-Sep-14 11:30N 70°40' E 023°40'0 0.0
2017-Sep-14 11:00N 70°40' E 023°40'1 1.4
2017-Sep-14 10:30N 70°40' E 023°39'1 1.4
2017-Sep-14 10:01N 70°39' E 023°37'2 3.7
2017-Sep-14 09:30N 70°37' E 023°38'1 1.3
2017-Sep-14 09:00N 70°38' E 023°39'0 0.0
2017-Sep-14 08:30N 70°38' E 023°39'0 1.0
2017-Sep-14 08:00N 70°37' E 023°39'611.0
2017-Sep-14 07:30N 70°38' E 023°22'612.4
2017-Sep-14 07:00N 70°34' E 023°08'612.7
2017-Sep-14 06:31N 70°30' E 022°52'612.4
2017-Sep-14 06:00N 70°28' E 022°35'611.8
2017-Sep-14 05:31N 70°27' E 022°18'611.4
2017-Sep-14 05:00N 70°26' E 022°01'611.5
2017-Sep-14 04:30N 70°24' E 021°44'612.1
2017-Sep-14 04:00N 70°20' E 021°31'712.6
2017-Sep-14 03:25N 70°15' E 021°14'511.5
2017-Sep-14 02:59N 70°12' E 021°05'612.0
2017-Sep-14 02:29N 70°06' E 020°58'611.6
2017-Sep-14 02:00N 70°02' E 020°46'611.8
2017-Sep-14 01:30N 70°01' E 020°29'611.4
2017-Sep-14 01:00N 69°59' E 020°13'612.4
2017-Sep-14 00:30N 69°55' E 019°60'612.3
2017-Sep-14 00:00N 69°51' E 019°45'612.2
2017-Sep-13 23:30N 69°49' E 019°29'612.3
2017-Sep-13 23:00N 69°47' E 019°12'611.0
2017-Sep-13 22:30N 69°42' E 019°03'510.1
2017-Sep-13 22:00N 69°38' E 018°57'0 0.0
2017-Sep-13 21:30N 69°38' E 018°57'0 0.0
2017-Sep-13 21:00N 69°38' E 018°57'0 0.0
2017-Sep-13 20:30N 69°38' E 018°57'0 0.0
2017-Sep-13 20:00N 69°38' E 018°57'0 0.0
2017-Sep-13 19:30N 69°38' E 018°57'0 0.0
2017-Sep-13 19:00N 69°38' E 018°57'0 0.0
2017-Sep-13 18:30N 69°38' E 018°57'0 0.0
2017-Sep-13 18:01N 69°38' E 018°57'0 0.0
2017-Sep-13 17:30N 69°38' E 018°57'0 0.0
2017-Sep-13 17:00N 69°38' E 018°57'0 0.0
2017-Sep-13 16:30N 69°38' E 018°57'0 0.9
2017-Sep-13 15:59N 69°38' E 018°57'1 2.9
2017-Sep-13 15:30N 69°39' E 018°58'0 0.0
2017-Sep-13 15:00N 69°39' E 018°58'0 0.0
2017-Sep-13 14:30N 69°39' E 018°58'0 0.0
2017-Sep-13 14:00N 69°39' E 018°58'0 0.0
2017-Sep-13 13:30N 69°39' E 018°58'0 0.0
2017-Sep-13 13:00N 69°39' E 018°58'0 0.0
2017-Sep-13 12:30N 69°39' E 018°58'0 0.0
2017-Sep-13 12:00N 69°39' E 018°58'0 0.0
2017-Sep-13 11:30N 69°39' E 018°58'1 1.7
2017-Sep-13 11:00N 69°39' E 018°58'611.2
2017-Sep-13 10:30N 69°34' E 018°48'611.2
2017-Sep-13 10:00N 69°32' E 018°33'611.5
2017-Sep-13 09:30N 69°30' E 018°18'510.3
2017-Sep-13 09:00N 69°26' E 018°08'3 5.1
2017-Sep-13 08:30N 69°24' E 018°09'0 0.0
2017-Sep-13 08:01N 69°24' E 018°09'0 0.0
2017-Sep-13 07:30N 69°24' E 018°09'0 0.0
2017-Sep-13 07:00N 69°24' E 018°09'0 0.0
2017-Sep-13 06:30N 69°24' E 018°09'0 0.0
2017-Sep-13 06:00N 69°24' E 018°09'0 0.0
2017-Sep-13 05:30N 69°24' E 018°09'0 0.0
2017-Sep-13 05:00N 69°24' E 018°09'0 0.0
2017-Sep-13 04:30N 69°24' E 018°09'0 0.0
2017-Sep-13 04:00N 69°24' E 018°09'0 0.0
2017-Sep-13 03:30N 69°24' E 018°09'0 0.2
2017-Sep-13 03:00N 69°24' E 018°09'1 2.4
2017-Sep-13 02:30N 69°23' E 018°06'5 9.6
2017-Sep-13 02:00N 69°19' E 017°60'510.6
2017-Sep-13 01:30N 69°14' E 017°57'3 5.3
2017-Sep-13 01:00N 69°13' E 018°04'0 0.0
2017-Sep-13 00:31N 69°13' E 018°04'0 0.0
2017-Sep-13 00:00N 69°13' E 018°04'0 0.0
2017-Sep-12 23:30N 69°13' E 018°04'2 4.3
2017-Sep-12 23:00N 69°13' E 017°58'510.2
2017-Sep-12 22:30N 69°18' E 017°58'5 9.8
2017-Sep-12 22:00N 69°23' E 018°05'510.4
2017-Sep-12 21:30N 69°28' E 018°06'510.7
2017-Sep-12 21:00N 69°33' E 017°59'510.4
2017-Sep-12 20:30N 69°37' E 017°51'5 9.9
2017-Sep-12 19:59N 69°39' E 017°37'5 9.8
2017-Sep-12 19:30N 69°36' E 017°27'510.7
2017-Sep-12 19:00N 69°30' E 017°30'1 1.3
2017-Sep-12 18:22N 69°30' E 017°29'2 5.8
2017-Sep-12 18:00N 69°32' E 017°28'611.5
2017-Sep-12 17:30N 69°33' E 017°12'611.7
2017-Sep-12 17:00N 69°32' E 016°56'611.8
2017-Sep-12 16:30N 69°27' E 016°44'611.8
2017-Sep-12 16:00N 69°22' E 016°36'612.2
2017-Sep-12 15:30N 69°17' E 016°27'611.6
2017-Sep-12 15:00N 69°12' E 016°19'611.0
2017-Sep-12 14:30N 69°07' E 016°11'611.2
2017-Sep-12 13:59N 69°03' E 016°02'510.8
2017-Sep-12 13:30N 68°59' E 015°50'5 9.6
2017-Sep-12 13:00N 68°58' E 015°38'611.4
2017-Sep-12 12:29N 68°52' E 015°31'611.8
2017-Sep-12 12:00N 68°47' E 015°26'3 7.0
2017-Sep-12 11:30N 68°44' E 015°31'0 0.0
2017-Sep-12 11:00N 68°44' E 015°31'0 0.0
2017-Sep-12 10:30N 68°44' E 015°31'0 0.0
2017-Sep-12 10:00N 68°44' E 015°31'0 0.0
2017-Sep-12 09:30N 68°44' E 015°31'1 2.9
2017-Sep-12 09:00N 68°44' E 015°27'511.2
2017-Sep-12 08:30N 68°39' E 015°23'611.8
2017-Sep-12 08:00N 68°34' E 015°12'510.8
2017-Sep-12 07:30N 68°29' E 015°13'611.4
2017-Sep-12 07:00N 68°24' E 015°06'611.7
2017-Sep-12 06:30N 68°19' E 014°58'611.3
2017-Sep-12 06:00N 68°13' E 014°55'611.1
2017-Sep-12 05:30N 68°08' E 014°48'611.4
2017-Sep-12 05:00N 68°03' E 014°42'611.8
2017-Sep-12 04:30N 67°58' E 014°35'611.8
2017-Sep-12 04:00N 67°53' E 014°27'611.8
2017-Sep-12 03:31N 67°48' E 014°20'611.7
2017-Sep-12 03:00N 67°42' E 014°17'612.2
2017-Sep-12 02:30N 67°36' E 014°19'612.6
2017-Sep-12 02:00N 67°30' E 014°22'611.8
2017-Sep-12 01:30N 67°24' E 014°26'612.1
2017-Sep-12 01:00N 67°19' E 014°18'612.2
2017-Sep-12 00:31N 67°14' E 014°09'  
Track history (hours):
 
Tides and Currents Weather Stations Pressure Air Temp Water Temp Dewpoint Dewpoint Depression Visibility Wind Speed Wind Dir Waves Ship Positions

Vidfoss

Last reported at 2017-Sep-22 01:01 UTC. Time now 2017-Sep-22 01:02 UTC.
Position N 52°28' E 004°40'.

Length 93 m; draft 5.3 m.

Type: Cargo ship. MMSI: 305846000.

Date/timePositionNaut miles runAvg speedWind from/ knotsBaromVisibWave heightAir tempDewpointWater temp
2017-Sep-22 01:01N 52°28' E 004°40'0 0.0
2017-Sep-22 00:30N 52°28' E 004°40'0 0.0
2017-Sep-22 00:00N 52°28' E 004°40'0 0.0
2017-Sep-21 23:30N 52°28' E 004°40'0 0.0
2017-Sep-21 23:00N 52°28' E 004°40'0 0.0
2017-Sep-21 22:30N 52°28' E 004°40'0 0.0
2017-Sep-21 22:00N 52°28' E 004°40'0 0.0
2017-Sep-21 21:30N 52°28' E 004°40'0 0.0
2017-Sep-21 21:00N 52°28' E 004°40'0 0.0
2017-Sep-21 20:30N 52°28' E 004°40'0 0.0
2017-Sep-21 20:00N 52°28' E 004°40'0 0.0
2017-Sep-21 19:30N 52°28' E 004°40'0 0.0
2017-Sep-21 19:00N 52°28' E 004°40'0 0.0
2017-Sep-21 18:30N 52°28' E 004°40'0 0.0
2017-Sep-21 18:00N 52°28' E 004°40'0 0.0
2017-Sep-21 17:30N 52°28' E 004°40'0 0.0
2017-Sep-21 17:00N 52°28' E 004°40'0 0.0
2017-Sep-21 16:30N 52°28' E 004°40'0 0.0
2017-Sep-21 16:00N 52°28' E 004°40'0 0.7
2017-Sep-21 15:30N 52°28' E 004°39'2 4.1
2017-Sep-21 15:00N 52°28' E 004°36'1 1.9
2017-Sep-21 14:30N 52°28' E 004°34'4 7.6
2017-Sep-21 14:01N 52°29' E 004°29'610.9
2017-Sep-21 13:30N 52°35' E 004°29'611.8
2017-Sep-21 13:00N 52°41' E 004°29'1111.8
2017-Sep-21 12:03N 52°52' E 004°30'31511.5
2017-Sep-20 08:43N 58°04' E 005°55'311.7
2017-Sep-20 08:30N 58°06' E 005°56'611.4
2017-Sep-20 08:00N 58°12' E 005°57'611.8
2017-Sep-20 07:30N 58°18' E 005°59'612.1
2017-Sep-20 07:01N 58°24' E 005°60'3 5.5
2017-Sep-20 06:30N 58°27' E 005°59'0 0.0
2017-Sep-20 06:00N 58°27' E 005°59'0 0.0
2017-Sep-20 05:31N 58°27' E 005°59'1 1.3
2017-Sep-20 05:01N 58°26' E 005°59'3 5.7
2017-Sep-20 04:30N 58°24' E 005°55'510.3
2017-Sep-20 04:00N 58°26' E 005°46'611.3
2017-Sep-20 03:30N 58°30' E 005°38'611.3
2017-Sep-20 03:00N 58°35' E 005°32'612.0
2017-Sep-20 02:30N 58°40' E 005°27'612.1
2017-Sep-20 02:01N 58°46' E 005°24'611.9
2017-Sep-20 01:31N 58°51' E 005°29'612.4
2017-Sep-20 01:00N 58°57' E 005°33'612.4
2017-Sep-20 00:30N 59°03' E 005°32'611.3
2017-Sep-20 00:00N 59°08' E 005°25'510.5
2017-Sep-19 23:30N 59°12' E 005°20'612.0
2017-Sep-19 23:00N 59°18' E 005°20'511.1
2017-Sep-19 22:30N 59°24' E 005°17'611.4
2017-Sep-19 22:00N 59°29' E 005°12'611.8
2017-Sep-19 21:30N 59°35' E 005°14'612.1
2017-Sep-19 21:00N 59°40' E 005°21'612.1
2017-Sep-19 20:30N 59°44' E 005°29'611.4
2017-Sep-19 20:00N 59°50' E 005°33'612.0
2017-Sep-19 19:30N 59°55' E 005°30'611.8
2017-Sep-19 19:00N 59°59' E 005°21'612.0
2017-Sep-19 18:30N 60°05' E 005°18'612.1
2017-Sep-19 18:00N 60°11' E 005°13'611.2
2017-Sep-19 17:30N 60°16' E 005°10'5 9.8
2017-Sep-19 17:00N 60°21' E 005°10'510.7
2017-Sep-19 16:30N 60°25' E 005°03'612.3
2017-Sep-19 16:00N 60°31' E 004°57'612.4
2017-Sep-19 15:30N 60°36' E 004°53'612.1
2017-Sep-19 15:00N 60°42' E 004°48'612.3
2017-Sep-19 14:29N 60°48' E 004°45'611.4
2017-Sep-19 14:00N 60°54' E 004°46'612.5
2017-Sep-19 13:30N 60°60' E 004°45'611.7
2017-Sep-19 13:00N 61°06' E 004°44'611.9
2017-Sep-19 12:30N 61°12' E 004°43'611.3
2017-Sep-19 12:00N 61°17' E 004°47'612.1
2017-Sep-19 11:30N 61°23' E 004°49'612.1
2017-Sep-19 11:00N 61°28' E 004°57'611.7
2017-Sep-19 10:30N 61°33' E 004°60'610.9
2017-Sep-19 09:59N 61°39' E 004°59'611.5
2017-Sep-19 09:30N 61°45' E 004°59'612.0
2017-Sep-19 09:00N 61°49' E 005°09'4 8.7
2017-Sep-19 08:30N 61°52' E 005°14'510.1
2017-Sep-19 08:00N 61°56' E 005°07'0 1.0
2017-Sep-19 07:30N 61°56' E 005°08'0 0.0
2017-Sep-19 07:00N 61°56' E 005°08'0 0.0
2017-Sep-19 06:30N 61°56' E 005°08'0 0.0
2017-Sep-19 06:00N 61°56' E 005°08'3 5.9
2017-Sep-19 05:29N 61°59' E 005°10'611.9
2017-Sep-19 05:00N 62°05' E 005°07'611.5
2017-Sep-19 04:30N 62°11' E 005°05'510.1
2017-Sep-19 04:00N 62°14' E 005°13'610.8
2017-Sep-19 03:30N 62°11' E 005°23'510.5
2017-Sep-19 03:00N 62°11' E 005°34'611.9
2017-Sep-19 02:30N 62°12' E 005°47'510.7
2017-Sep-19 02:00N 62°15' E 005°56'5 9.9
2017-Sep-19 01:30N 62°19' E 006°04'3 5.2
2017-Sep-19 01:00N 62°21' E 006°05'0 0.2
2017-Sep-19 00:30N 62°21' E 006°05'0 0.0
2017-Sep-19 00:00N 62°21' E 006°05'0 0.0
2017-Sep-18 23:30N 62°21' E 006°05'0 0.0
2017-Sep-18 23:01N 62°21' E 006°05'2 4.2
2017-Sep-18 22:31N 62°23' E 006°05'4 8.4
2017-Sep-18 22:00N 62°27' E 006°08'1 2.0
2017-Sep-18 21:30N 62°28' E 006°08'0 0.0
2017-Sep-18 21:00N 62°28' E 006°08'0 0.0
2017-Sep-18 20:30N 62°28' E 006°08'0 0.0
2017-Sep-18 20:00N 62°28' E 006°08'1 2.2
2017-Sep-18 19:30N 62°27' E 006°10'2 3.2
2017-Sep-18 18:59N 62°29' E 006°10'2 3.4
2017-Sep-18 18:30N 62°29' E 006°14'0 0.0
2017-Sep-18 18:01N 62°29' E 006°14'1 1.1
2017-Sep-18 17:29N 62°29' E 006°14'3 5.9
2017-Sep-18 17:00N 62°28' E 006°21'0 0.0
2017-Sep-18 16:30N 62°28' E 006°21'1 1.5
2017-Sep-18 16:00N 62°29' E 006°19'1 1.2
2017-Sep-18 15:30N 62°29' E 006°18'0 0.0
2017-Sep-18 15:00N 62°29' E 006°18'0 0.0
2017-Sep-18 14:30N 62°29' E 006°18'0 0.2
2017-Sep-18 14:00N 62°29' E 006°19'5 9.1
2017-Sep-18 13:30N 62°29' E 006°09'1 1.2
2017-Sep-18 13:00N 62°28' E 006°08'0 0.0
2017-Sep-18 12:30N 62°28' E 006°08'1 2.2
2017-Sep-18 12:00N 62°29' E 006°08'611.6
2017-Sep-18 11:29N 62°35' E 006°14'612.2
2017-Sep-18 11:00N 62°39' E 006°23'612.1
2017-Sep-18 10:30N 62°44' E 006°31'612.2
2017-Sep-18 10:00N 62°49' E 006°38'612.2
2017-Sep-18 09:30N 62°54' E 006°46'612.1
2017-Sep-18 09:00N 62°59' E 006°54'612.2
2017-Sep-18 08:30N 63°01' E 007°06'612.0
2017-Sep-18 08:00N 63°03' E 007°18'611.8
2017-Sep-18 07:30N 63°06' E 007°30'612.0
2017-Sep-18 07:00N 63°09' E 007°41'612.0
2017-Sep-18 06:30N 63°12' E 007°52'612.1
2017-Sep-18 06:01N 63°15' E 008°04'611.7
2017-Sep-18 05:30N 63°19' E 008°15'611.8
2017-Sep-18 05:00N 63°22' E 008°25'612.3
2017-Sep-18 04:30N 63°25' E 008°37'612.3
2017-Sep-18 04:00N 63°27' E 008°50'612.2
2017-Sep-18 03:30N 63°29' E 009°03'612.4
2017-Sep-18 03:00N 63°32' E 009°15'612.0
2017-Sep-18 02:30N 63°36' E 009°26'611.8
2017-Sep-18 02:00N 63°41' E 009°30'611.9
2017-Sep-18 01:30N 63°47' E 009°34'612.0
2017-Sep-18 00:59N 63°52' E 009°42'611.1
2017-Sep-18 00:30N 63°57' E 009°47'611.4
2017-Sep-18 00:00N 64°03' E 009°48'611.9
2017-Sep-17 23:29N 64°06' E 009°59'611.5
2017-Sep-17 23:00N 64°10' E 010°08'611.7
2017-Sep-17 22:30N 64°15' E 010°17'1 1.5
2017-Sep-17 21:36N 64°16' E 010°19'1 8.1
2017-Sep-17 21:30N 64°17' E 010°19'510.8
2017-Sep-17 21:00N 64°22' E 010°23'611.4
2017-Sep-17 20:30N 64°27' E 010°27'611.5
2017-Sep-17 20:00N 64°32' E 010°33'612.1
2017-Sep-17 19:31N 64°37' E 010°41'611.9
2017-Sep-17 19:00N 64°41' E 010°51'611.9
2017-Sep-17 18:30N 64°46' E 011°01'611.8
2017-Sep-17 18:01N 64°50' E 011°10'510.8
2017-Sep-17 17:30N 64°54' E 011°19'611.6
2017-Sep-17 17:01N 64°57' E 011°30'611.2
2017-Sep-17 16:31N 65°01' E 011°40'612.0
2017-Sep-17 16:01N 65°06' E 011°48'612.3
2017-Sep-17 15:31N 65°12' E 011°52'612.0
2017-Sep-17 15:00N 65°17' E 011°58'510.1
2017-Sep-17 14:30N 65°22' E 012°01'611.1
2017-Sep-17 14:00N 65°27' E 011°56'612.1
2017-Sep-17 13:30N 65°33' E 012°02'611.9
2017-Sep-17 13:00N 65°37' E 012°11'612.3
2017-Sep-17 12:30N 65°43' E 012°16'612.2
2017-Sep-17 12:00N 65°49' E 012°21'612.2
2017-Sep-17 11:30N 65°55' E 012°22'612.0
2017-Sep-17 11:00N 65°60' E 012°30'612.0
2017-Sep-17 10:30N 66°05' E 012°40'611.8
2017-Sep-17 10:00N 66°09' E 012°49'611.9
2017-Sep-17 09:30N 66°15' E 012°54'612.1
2017-Sep-17 09:00N 66°21' E 012°57'612.0
2017-Sep-17 08:30N 66°27' E 012°59'611.3
2017-Sep-17 07:59N 66°32' E 012°59'510.6
2017-Sep-17 07:30N 66°37' E 013°04'612.0
2017-Sep-17 06:59N 66°43' E 013°10'611.7
2017-Sep-17 06:30N 66°48' E 013°15'510.9
2017-Sep-17 06:00N 66°53' E 013°20'611.7
2017-Sep-17 05:30N 66°59' E 013°19'611.9
2017-Sep-17 05:00N 67°05' E 013°16'612.1
2017-Sep-17 04:30N 67°10' E 013°11'612.3
2017-Sep-17 04:00N 67°16' E 013°05'812.6
2017-Sep-17 03:21N 67°24' E 012°57'412.3
2017-Sep-17 03:00N 67°28' E 012°53'612.2
2017-Sep-17 02:30N 67°34' E 012°47'611.5
2017-Sep-17 02:00N 67°39' E 012°43'1 1.0
2017-Sep-17 01:30N 67°39' E 012°42'0 0.0
2017-Sep-17 01:00N 67°39' E 012°42'0 0.0
2017-Sep-17 00:30N 67°39' E 012°42'0 0.0
2017-Sep-17 00:00N 67°39' E 012°42'0 0.0
2017-Sep-16 23:30N 67°39' E 012°42'0 0.0
2017-Sep-16 23:00N 67°39' E 012°42'0 0.0
2017-Sep-16 22:30N 67°39' E 012°42'0 0.0
2017-Sep-16 22:00N 67°39' E 012°42'0 0.0
2017-Sep-16 21:30N 67°39' E 012°42'0 0.0
2017-Sep-16 21:00N 67°39' E 012°42'0 0.0
2017-Sep-16 20:30N 67°39' E 012°42'0 0.0
2017-Sep-16 20:00N 67°39' E 012°42'2 4.5
2017-Sep-16 19:30N 67°40' E 012°48'713.0
2017-Sep-16 19:00N 67°44' E 013°00'713.0
2017-Sep-16 18:29N 67°49' E 013°12'613.1
2017-Sep-16 18:00N 67°53' E 013°24'712.9
2017-Sep-16 17:30N 67°58' E 013°36'612.3
2017-Sep-16 16:59N 68°03' E 013°47'4 9.1
2017-Sep-16 16:30N 68°07' E 013°50'0 0.0
2017-Sep-16 16:00N 68°07' E 013°50'0 0.0
2017-Sep-16 15:30N 68°07' E 013°50'0 0.0
2017-Sep-16 14:59N 68°07' E 013°50'0 0.3
2017-Sep-16 14:30N 68°07' E 013°50'5 9.8
2017-Sep-16 13:59N 68°08' E 014°03'511.3
2017-Sep-16 13:30N 68°13' E 014°10'611.6
2017-Sep-16 13:00N 68°19' E 014°17'611.1
2017-Sep-16 12:29N 68°24' E 014°22'611.9
2017-Sep-16 12:00N 68°27' E 014°35'612.1
2017-Sep-16 11:30N 68°29' E 014°51'612.1
2017-Sep-16 11:00N 68°32' E 015°04'612.4
2017-Sep-16 10:30N 68°36' E 015°16'611.7
2017-Sep-16 10:00N 68°41' E 015°26'612.0
2017-Sep-16 09:30N 68°47' E 015°26'612.2
2017-Sep-16 09:00N 68°53' E 015°32'611.4
2017-Sep-16 08:30N 68°58' E 015°39'4 8.9
2017-Sep-16 08:00N 68°59' E 015°51'4 9.0
2017-Sep-16 07:30N 69°02' E 016°00'611.8
2017-Sep-16 07:00N 69°07' E 016°10'611.7
2017-Sep-16 06:29N 69°12' E 016°19'611.9
2017-Sep-16 06:00N 69°17' E 016°27'612.1
2017-Sep-16 05:30N 69°22' E 016°36'612.0
2017-Sep-16 05:00N 69°27' E 016°45'611.5
2017-Sep-16 04:30N 69°31' E 016°57'611.0
2017-Sep-16 03:59N 69°33' E 017°12'611.3
2017-Sep-16 03:29N 69°32' E 017°28'2 0.4
2017-Sep-15 21:31N 69°30' E 017°29'0 0.0
2017-Sep-15 21:30N 69°30' E 017°29'3 6.1
2017-Sep-15 21:00N 69°33' E 017°28'511.2
2017-Sep-15 20:30N 69°38' E 017°31'611.2
2017-Sep-15 20:00N 69°38' E 017°47'611.7
2017-Sep-15 19:31N 69°34' E 017°59'611.6
2017-Sep-15 19:00N 69°31' E 018°13'611.7
2017-Sep-15 18:30N 69°32' E 018°29'511.0
2017-Sep-15 18:00N 69°33' E 018°44'611.0
2017-Sep-15 17:30N 69°37' E 018°55'1 1.2
2017-Sep-15 17:00N 69°38' E 018°57'0 0.0
2017-Sep-15 16:30N 69°38' E 018°57'0 0.0
2017-Sep-15 16:00N 69°38' E 018°57'0 0.0
2017-Sep-15 15:30N 69°38' E 018°57'0 0.0
2017-Sep-15 15:01N 69°38' E 018°57'0 0.0
2017-Sep-15 14:30N 69°38' E 018°57'0 0.0
2017-Sep-15 14:00N 69°38' E 018°57'0 0.0
2017-Sep-15 13:30N 69°38' E 018°57'0 0.0
2017-Sep-15 13:00N 69°38' E 018°57'0 0.0
2017-Sep-15 12:30N 69°38' E 018°57'0 0.0
2017-Sep-15 12:00N 69°38' E 018°57'0 0.0
2017-Sep-15 11:30N 69°38' E 018°57'0 0.0
2017-Sep-15 11:00N 69°38' E 018°57'0 0.0
2017-Sep-15 10:30N 69°38' E 018°57'0 0.0
2017-Sep-15 10:00N 69°38' E 018°57'0 0.0
2017-Sep-15 09:30N 69°38' E 018°57'0 0.0
2017-Sep-15 09:00N 69°38' E 018°57'0 0.0
2017-Sep-15 08:30N 69°38' E 018°57'0 0.0
2017-Sep-15 08:01N 69°38' E 018°57'0 0.0
2017-Sep-15 07:30N 69°38' E 018°57'0 0.0
2017-Sep-15 07:00N 69°38' E 018°57'0 0.0
2017-Sep-15 06:30N 69°38' E 018°57'1 1.8
2017-Sep-15 06:00N 69°38' E 018°57'1 2.0
2017-Sep-15 05:31N 69°39' E 018°58'0 0.0
2017-Sep-15 05:00N 69°39' E 018°58'4 7.6
2017-Sep-15 04:30N 69°43' E 019°03'510.3
2017-Sep-15 04:00N 69°47' E 019°13'611.9
2017-Sep-15 03:30N 69°49' E 019°29'611.2
2017-Sep-15 03:00N 69°51' E 019°44'510.3
2017-Sep-15 02:30N 69°54' E 019°56'4 8.7
2017-Sep-15 02:00N 69°57' E 020°05'4 8.7
2017-Sep-15 01:30N 69°59' E 020°16'4 9.0
2017-Sep-15 01:00N 70°01' E 020°28'5 9.4
2017-Sep-15 00:30N 70°02' E 020°41'4 9.0
2017-Sep-15 00:00N 70°04' E 020°53'4 8.3
2017-Sep-14 23:29N 70°08' E 020°59'4 8.3
2017-Sep-14 23:00N 70°11' E 021°04'4 8.7
2017-Sep-14 22:30N 70°15' E 021°12'4 8.5
2017-Sep-14 22:00N 70°17' E 021°22'4 8.5
2017-Sep-14 21:29N 70°20' E 021°31'4 8.4
2017-Sep-14 21:00N 70°23' E 021°39'3 7.0
2017-Sep-14 20:30N 70°23' E 021°49'5 9.4
2017-Sep-14 20:00N 70°21' E 022°01'5 9.5
2017-Sep-14 19:30N 70°18' E 022°14'4 8.7
2017-Sep-14 19:00N 70°15' E 022°20'1 1.2
2017-Sep-14 18:30N 70°14' E 022°21'0 0.0
2017-Sep-14 18:00N 70°14' E 022°21'0 0.2
2017-Sep-14 17:30N 70°14' E 022°21'5 9.7
2017-Sep-14 17:00N 70°19' E 022°18'611.0
2017-Sep-14 16:30N 70°24' E 022°28'612.4
2017-Sep-14 16:01N 70°27' E 022°42'612.2
2017-Sep-14 15:30N 70°31' E 022°57'612.0
2017-Sep-14 15:00N 70°35' E 023°11'611.6
2017-Sep-14 14:30N 70°38' E 023°25'510.4
2017-Sep-14 14:00N 70°40' E 023°40'0 0.0
2017-Sep-14 13:30N 70°40' E 023°40'0 0.0
2017-Sep-14 13:00N 70°40' E 023°40'0 0.0
2017-Sep-14 12:30N 70°40' E 023°40'0 0.0
2017-Sep-14 12:00N 70°40' E 023°40'0 0.0
2017-Sep-14 11:30N 70°40' E 023°40'0 0.0
2017-Sep-14 11:00N 70°40' E 023°40'1 1.4
2017-Sep-14 10:30N 70°40' E 023°39'1 1.4
2017-Sep-14 10:01N 70°39' E 023°37'2 3.7
2017-Sep-14 09:30N 70°37' E 023°38'1 1.3
2017-Sep-14 09:00N 70°38' E 023°39'0 0.0
2017-Sep-14 08:30N 70°38' E 023°39'0 1.0
2017-Sep-14 08:00N 70°37' E 023°39'611.0
2017-Sep-14 07:30N 70°38' E 023°22'612.4
2017-Sep-14 07:00N 70°34' E 023°08'612.7
2017-Sep-14 06:31N 70°30' E 022°52'612.4
2017-Sep-14 06:00N 70°28' E 022°35'611.8
2017-Sep-14 05:31N 70°27' E 022°18'611.4
2017-Sep-14 05:00N 70°26' E 022°01'611.5
2017-Sep-14 04:30N 70°24' E 021°44'612.1
2017-Sep-14 04:00N 70°20' E 021°31'712.6
2017-Sep-14 03:25N 70°15' E 021°14'511.5
2017-Sep-14 02:59N 70°12' E 021°05'612.0
2017-Sep-14 02:29N 70°06' E 020°58'611.6
2017-Sep-14 02:00N 70°02' E 020°46'611.8
2017-Sep-14 01:30N 70°01' E 020°29'611.4
2017-Sep-14 01:00N 69°59' E 020°13'612.4
2017-Sep-14 00:30N 69°55' E 019°60'612.3
2017-Sep-14 00:00N 69°51' E 019°45'612.2
2017-Sep-13 23:30N 69°49' E 019°29'612.3
2017-Sep-13 23:00N 69°47' E 019°12'611.0
2017-Sep-13 22:30N 69°42' E 019°03'510.1
2017-Sep-13 22:00N 69°38' E 018°57'0 0.0
2017-Sep-13 21:30N 69°38' E 018°57'0 0.0
2017-Sep-13 21:00N 69°38' E 018°57'0 0.0
2017-Sep-13 20:30N 69°38' E 018°57'0 0.0
2017-Sep-13 20:00N 69°38' E 018°57'0 0.0
2017-Sep-13 19:30N 69°38' E 018°57'0 0.0
2017-Sep-13 19:00N 69°38' E 018°57'0 0.0
2017-Sep-13 18:30N 69°38' E 018°57'0 0.0
2017-Sep-13 18:01N 69°38' E 018°57'0 0.0
2017-Sep-13 17:30N 69°38' E 018°57'0 0.0
2017-Sep-13 17:00N 69°38' E 018°57'0 0.0
2017-Sep-13 16:30N 69°38' E 018°57'0 0.9
2017-Sep-13 15:59N 69°38' E 018°57'1 2.9
2017-Sep-13 15:30N 69°39' E 018°58'0 0.0
2017-Sep-13 15:00N 69°39' E 018°58'0 0.0
2017-Sep-13 14:30N 69°39' E 018°58'0 0.0
2017-Sep-13 14:00N 69°39' E 018°58'0 0.0
2017-Sep-13 13:30N 69°39' E 018°58'0 0.0
2017-Sep-13 13:00N 69°39' E 018°58'0 0.0
2017-Sep-13 12:30N 69°39' E 018°58'0 0.0
2017-Sep-13 12:00N 69°39' E 018°58'0 0.0
2017-Sep-13 11:30N 69°39' E 018°58'1 1.7
2017-Sep-13 11:00N 69°39' E 018°58'611.2
2017-Sep-13 10:30N 69°34' E 018°48'611.2
2017-Sep-13 10:00N 69°32' E 018°33'611.5
2017-Sep-13 09:30N 69°30' E 018°18'510.3
2017-Sep-13 09:00N 69°26' E 018°08'3 5.1
2017-Sep-13 08:30N 69°24' E 018°09'0 0.0
2017-Sep-13 08:01N 69°24' E 018°09'0 0.0
2017-Sep-13 07:30N 69°24' E 018°09'0 0.0
2017-Sep-13 07:00N 69°24' E 018°09'0 0.0
2017-Sep-13 06:30N 69°24' E 018°09'0 0.0
2017-Sep-13 06:00N 69°24' E 018°09'0 0.0
2017-Sep-13 05:30N 69°24' E 018°09'0 0.0
2017-Sep-13 05:00N 69°24' E 018°09'0 0.0
2017-Sep-13 04:30N 69°24' E 018°09'0 0.0
2017-Sep-13 04:00N 69°24' E 018°09'0 0.0
2017-Sep-13 03:30N 69°24' E 018°09'0 0.2
2017-Sep-13 03:00N 69°24' E 018°09'1 2.4
2017-Sep-13 02:30N 69°23' E 018°06'5 9.6
2017-Sep-13 02:00N 69°19' E 017°60'510.6
2017-Sep-13 01:30N 69°14' E 017°57'3 5.3
2017-Sep-13 01:00N 69°13' E 018°04'0 0.0
2017-Sep-13 00:31N 69°13' E 018°04'0 0.0
2017-Sep-13 00:00N 69°13' E 018°04'0 0.0
2017-Sep-12 23:30N 69°13' E 018°04'2 4.3
2017-Sep-12 23:00N 69°13' E 017°58'510.2
2017-Sep-12 22:30N 69°18' E 017°58'5 9.8
2017-Sep-12 22:00N 69°23' E 018°05'510.4
2017-Sep-12 21:30N 69°28' E 018°06'510.7
2017-Sep-12 21:00N 69°33' E 017°59'510.4
2017-Sep-12 20:30N 69°37' E 017°51'5 9.9
2017-Sep-12 19:59N 69°39' E 017°37'5 9.8
2017-Sep-12 19:30N 69°36' E 017°27'510.7
2017-Sep-12 19:00N 69°30' E 017°30'1 1.3
2017-Sep-12 18:22N 69°30' E 017°29'2 5.8
2017-Sep-12 18:00N 69°32' E 017°28'611.5
2017-Sep-12 17:30N 69°33' E 017°12'611.7
2017-Sep-12 17:00N 69°32' E 016°56'611.8
2017-Sep-12 16:30N 69°27' E 016°44'611.8
2017-Sep-12 16:00N 69°22' E 016°36'612.2
2017-Sep-12 15:30N 69°17' E 016°27'611.6
2017-Sep-12 15:00N 69°12' E 016°19'611.0
2017-Sep-12 14:30N 69°07' E 016°11'611.2
2017-Sep-12 13:59N 69°03' E 016°02'510.8
2017-Sep-12 13:30N 68°59' E 015°50'5 9.6
2017-Sep-12 13:00N 68°58' E 015°38'611.4
2017-Sep-12 12:29N 68°52' E 015°31'611.8
2017-Sep-12 12:00N 68°47' E 015°26'3 7.0
2017-Sep-12 11:30N 68°44' E 015°31'0 0.0
2017-Sep-12 11:00N 68°44' E 015°31'0 0.0
2017-Sep-12 10:30N 68°44' E 015°31'0 0.0
2017-Sep-12 10:00N 68°44' E 015°31'0 0.0
2017-Sep-12 09:30N 68°44' E 015°31'1 2.9
2017-Sep-12 09:00N 68°44' E 015°27'511.2
2017-Sep-12 08:30N 68°39' E 015°23'611.8
2017-Sep-12 08:00N 68°34' E 015°12'510.8
2017-Sep-12 07:30N 68°29' E 015°13'611.4
2017-Sep-12 07:00N 68°24' E 015°06'611.7
2017-Sep-12 06:30N 68°19' E 014°58'611.3
2017-Sep-12 06:00N 68°13' E 014°55'611.1
2017-Sep-12 05:30N 68°08' E 014°48'611.4
2017-Sep-12 05:00N 68°03' E 014°42'611.8
2017-Sep-12 04:30N 67°58' E 014°35'611.8
2017-Sep-12 04:00N 67°53' E 014°27'611.8
2017-Sep-12 03:31N 67°48' E 014°20'611.7
2017-Sep-12 03:00N 67°42' E 014°17'612.2
2017-Sep-12 02:30N 67°36' E 014°19'612.6
2017-Sep-12 02:00N 67°30' E 014°22'611.8
2017-Sep-12 01:30N 67°24' E 014°26'612.1
2017-Sep-12 01:00N 67°19' E 014°18'612.2
2017-Sep-12 00:31N 67°14' E 014°09'  

Dump ship's entire track history